createdAt,value
2023-06-14T00:02:14.435Z,6.80
2023-06-14T00:05:19.265Z,4.55
2023-06-14T00:08:23.845Z,6.93
2023-06-14T00:11:27.824Z,5.18
2023-06-14T00:14:31.121Z,5.05
2023-06-14T00:17:35.433Z,7.10
2023-06-14T00:20:40.347Z,5.05
2023-06-14T00:23:43.670Z,4.05
2023-06-14T00:26:46.634Z,3.73
2023-06-14T00:29:49.637Z,4.03
2023-06-14T00:32:53.473Z,5.95
2023-06-14T00:35:57.988Z,5.15
2023-06-14T00:39:00.989Z,6.20
2023-06-14T00:42:03.968Z,3.13
2023-06-14T00:45:07.610Z,4.25
2023-06-14T00:48:11.588Z,5.97
2023-06-14T00:51:16.830Z,4.90
2023-06-14T00:54:20.080Z,3.42
2023-06-14T00:57:25.015Z,4.47
2023-06-14T01:00:29.523Z,6.38
2023-06-14T01:03:33.731Z,6.32
2023-06-14T01:09:57.669Z,2.63
2023-06-14T01:13:09.704Z,3.50
2023-06-14T01:16:13.963Z,4.40
2023-06-14T01:19:18.021Z,7.82
2023-06-14T01:22:22.373Z,3.53
2023-06-14T01:31:42.612Z,6.93
2023-06-14T01:34:46.251Z,3.72
2023-06-14T01:37:51.187Z,5.13
2023-06-14T01:40:59.139Z,4.03
2023-06-14T01:44:03.996Z,4.68
2023-06-14T01:47:07.969Z,4.10
2023-06-14T01:50:12.198Z,4.53
2023-06-14T01:53:15.583Z,5.22
2023-06-14T01:56:20.983Z,6.22
2023-06-14T01:59:24.206Z,6.75
2023-06-14T02:02:27.746Z,4.18
2023-06-14T02:05:31.210Z,5.80
2023-06-14T02:08:34.584Z,4.50
2023-06-14T02:11:39.056Z,3.67
2023-06-14T02:14:42.160Z,4.07
2023-06-14T02:17:45.753Z,3.70
2023-06-14T02:20:49.498Z,4.97
2023-06-14T02:23:52.771Z,9.10
2023-06-14T02:26:57.219Z,4.20
2023-06-14T02:30:00.296Z,3.10
2023-06-14T02:33:04.159Z,3.53
2023-06-14T02:36:08.063Z,6.65
2023-06-14T02:39:12.103Z,3.22
2023-06-14T02:42:16.795Z,7.30
2023-06-14T02:45:20.192Z,3.47
2023-06-14T02:48:23.701Z,5.07
2023-06-14T02:51:27.006Z,6.38
2023-06-14T02:54:30.470Z,3.87
2023-06-14T02:57:34.898Z,5.30
2023-06-14T03:00:39.914Z,4.03
2023-06-14T03:03:43.124Z,3.97
2023-06-14T03:06:51.421Z,5.30
2023-06-14T03:09:54.780Z,4.82
2023-06-14T03:12:59.651Z,3.38
2023-06-14T03:16:03.411Z,7.50
2023-06-14T03:19:06.897Z,3.92
2023-06-14T03:22:09.900Z,3.67
2023-06-14T03:25:13.753Z,5.07
2023-06-14T03:28:18.005Z,3.83
2023-06-14T03:34:24.338Z,3.20
2023-06-14T03:37:27.277Z,3.47
2023-06-14T03:40:30.576Z,3.47
2023-06-14T03:43:35.814Z,3.57
2023-06-14T03:46:38.753Z,3.97
2023-06-14T03:49:42.005Z,6.45
2023-06-14T03:52:44.969Z,6.55
2023-06-14T03:58:57.125Z,4.95
2023-06-14T04:02:00.045Z,6.80
2023-06-14T04:05:04.869Z,6.65
2023-06-14T04:08:10.203Z,9.32
2023-06-14T04:11:13.307Z,3.78
2023-06-14T04:14:17.618Z,2.63
2023-06-14T04:17:20.646Z,7.38
2023-06-14T04:20:23.676Z,4.45
2023-06-14T04:23:29.139Z,4.18
2023-06-14T04:26:34.645Z,3.50
2023-06-14T04:29:40.139Z,4.25
2023-06-14T04:32:43.755Z,5.75
2023-06-14T04:35:48.523Z,3.28
2023-06-14T04:38:55.024Z,8.95
2023-06-14T04:42:01.666Z,4.97
2023-06-14T04:45:08.010Z,7.43
2023-06-14T04:48:11.696Z,10.05
2023-06-14T04:51:16.439Z,9.63
2023-06-14T04:54:19.967Z,6.72
2023-06-14T04:57:23.367Z,7.38
2023-06-14T05:00:27.888Z,9.77
2023-06-14T05:03:32.055Z,5.00
2023-06-14T05:06:35.074Z,6.90
2023-06-14T05:09:38.567Z,4.50
2023-06-14T05:12:41.617Z,3.33
2023-06-14T05:17:09.310Z,3.25
2023-06-14T05:20:12.426Z,7.95
2023-06-14T05:23:16.713Z,4.78
2023-06-14T05:26:19.894Z,3.08
2023-06-14T05:29:23.127Z,3.20
2023-06-14T05:32:27.931Z,6.20
2023-06-14T05:35:31.348Z,6.15
2023-06-14T05:38:34.561Z,2.67
2023-06-14T05:41:37.636Z,2.47
2023-06-14T05:44:40.843Z,3.95
2023-06-14T05:47:45.626Z,2.90
2023-06-14T05:50:48.753Z,3.47
2023-06-14T05:53:52.204Z,3.67
2023-06-14T05:56:55.474Z,4.03
2023-06-14T05:59:58.701Z,5.75
2023-06-14T06:03:03.505Z,4.05
2023-06-14T06:06:06.944Z,2.67
2023-06-14T06:09:10.162Z,4.60
2023-06-14T06:12:13.154Z,4.20
2023-06-14T06:15:39.674Z,3.40
2023-06-14T06:18:43.449Z,2.72
2023-06-14T06:21:48.933Z,4.05
2023-06-14T06:24:52.146Z,3.83
2023-06-14T06:27:55.652Z,3.33
2023-06-14T06:34:03.976Z,2.88
2023-06-14T06:37:08.701Z,2.25
2023-06-14T06:40:13.186Z,5.10
2023-06-14T06:43:17.996Z,3.50
2023-06-14T06:46:22.938Z,3.70
2023-06-14T06:49:26.326Z,7.03
2023-06-14T06:52:31.207Z,7.85
2023-06-14T06:55:34.426Z,4.13
2023-06-14T06:58:37.641Z,2.30
2023-06-14T07:01:42.465Z,5.45
2023-06-14T07:04:45.569Z,3.85
2023-06-14T07:07:48.640Z,2.97
2023-06-14T07:10:51.694Z,5.78
2023-06-14T07:13:55.202Z,6.80
2023-06-14T07:16:59.733Z,4.30
2023-06-14T07:20:12.859Z,5.07
2023-06-14T07:23:16.464Z,3.83
2023-06-14T07:26:19.577Z,3.08
2023-06-14T07:29:22.752Z,2.85
2023-06-14T07:32:27.518Z,5.70
2023-06-14T07:35:30.664Z,5.07
2023-06-14T07:38:33.954Z,5.60
2023-06-14T07:41:37.161Z,5.00
2023-06-14T07:44:40.498Z,5.60
2023-06-14T07:48:06.187Z,5.38
2023-06-14T07:51:09.324Z,7.65
2023-06-14T07:54:12.432Z,3.90
2023-06-14T07:57:15.985Z,6.67
2023-06-14T08:00:21.242Z,4.60
2023-06-14T08:03:26.285Z,5.95
2023-06-14T08:06:29.619Z,4.53
2023-06-14T08:09:33.380Z,4.23
2023-06-14T08:15:39.828Z,3.35
2023-06-14T08:18:44.512Z,5.23
2023-06-14T08:21:48.424Z,4.18
2023-06-14T08:27:54.812Z,3.97
2023-06-14T08:30:58.082Z,5.00
2023-06-14T08:34:04.739Z,2.92
2023-06-14T08:37:08.690Z,3.83
2023-06-14T08:40:21.759Z,3.40
2023-06-14T08:43:24.939Z,4.18
2023-06-14T08:46:29.922Z,6.47
2023-06-14T08:49:34.890Z,2.30
2023-06-14T08:52:46.979Z,10.38
2023-06-14T08:55:50.930Z,3.13
2023-06-14T09:02:11.902Z,5.40
2023-06-14T09:05:19.295Z,8.93
2023-06-14T09:08:23.492Z,6.80
2023-06-14T09:11:27.808Z,3.67
2023-06-14T09:14:31.237Z,3.42
2023-06-14T09:17:34.954Z,5.95
2023-06-14T09:20:40.085Z,4.10
2023-06-14T09:23:44.806Z,5.80
2023-06-14T09:26:49.244Z,3.67
2023-06-14T09:29:52.589Z,4.38
2023-06-14T09:32:56.367Z,4.88
2023-06-14T09:39:07.295Z,2.65
2023-06-14T09:42:20.182Z,3.80
2023-06-14T09:45:23.831Z,8.45
2023-06-14T09:48:27.022Z,4.68
2023-06-14T09:51:32.312Z,4.30
2023-06-14T09:54:43.610Z,6.00
2023-06-14T09:57:50.234Z,2.88
2023-06-14T10:00:54.098Z,2.90
2023-06-14T10:04:08.129Z,4.40
2023-06-14T10:07:18.239Z,2.67
2023-06-14T10:10:21.813Z,6.47
2023-06-14T10:13:25.561Z,6.20
2023-06-14T10:16:33.136Z,4.05
2023-06-14T10:19:42.759Z,4.35
2023-06-14T10:22:53.444Z,6.72
2023-06-14T10:26:00.948Z,5.25
2023-06-14T10:29:10.768Z,2.42
2023-06-14T10:32:13.995Z,4.68
2023-06-14T10:35:18.927Z,4.45
2023-06-14T10:38:32.961Z,4.05
2023-06-14T10:41:38.528Z,2.95
2023-06-14T10:44:44.144Z,3.38
2023-06-14T10:47:53.475Z,3.55
2023-06-14T10:51:03.880Z,6.45
2023-06-14T10:54:13.949Z,7.15
2023-06-14T10:57:17.074Z,2.70
2023-06-14T11:00:23.552Z,7.47
2023-06-14T11:03:45.711Z,5.18
2023-06-14T11:06:50.168Z,3.05
2023-06-14T11:10:07.889Z,6.68
2023-06-14T11:13:11.218Z,3.85
2023-06-14T11:16:15.377Z,7.93
2023-06-14T11:19:19.433Z,5.20
2023-06-14T11:22:22.478Z,8.80
2023-06-14T11:25:28.985Z,6.00
2023-06-14T11:28:39.739Z,5.05
2023-06-14T11:31:45.730Z,4.65
2023-06-14T11:34:49.302Z,4.80
2023-06-14T11:37:57.181Z,5.10
2023-06-14T11:41:04.482Z,4.80
2023-06-14T11:44:08.632Z,2.78
2023-06-14T11:47:12.379Z,3.40
2023-06-14T11:50:15.676Z,4.55
2023-06-14T11:53:18.870Z,2.72
2023-06-14T11:56:23.676Z,5.78
2023-06-14T11:59:27.007Z,2.38
2023-06-14T12:02:33.534Z,2.92
2023-06-14T12:05:37.236Z,3.05
2023-06-14T12:08:41.725Z,3.63
2023-06-14T12:11:46.464Z,3.15
2023-06-14T12:14:49.710Z,6.38
2023-06-14T12:17:53.990Z,3.28
2023-06-14T12:21:03.646Z,3.97
2023-06-14T12:24:07.986Z,6.47
2023-06-14T12:27:16.877Z,4.55
2023-06-14T12:30:19.997Z,5.55
2023-06-14T12:33:23.775Z,2.47
2023-06-14T12:39:32.445Z,4.07
2023-06-14T12:42:37.446Z,4.10
2023-06-14T12:45:41.140Z,4.30
2023-06-14T12:48:44.420Z,2.90
2023-06-14T12:51:47.605Z,4.60
2023-06-14T12:54:50.910Z,4.53
2023-06-14T12:57:55.467Z,3.30
2023-06-14T13:00:58.751Z,5.68
2023-06-14T13:04:02.045Z,4.72
2023-06-14T13:07:05.951Z,9.55
2023-06-14T13:13:14.582Z,2.33
2023-06-14T13:16:18.472Z,3.45
2023-06-14T13:19:22.083Z,3.65
2023-06-14T13:22:25.462Z,7.57
2023-06-14T13:25:28.649Z,3.97
2023-06-14T13:28:34.053Z,4.88
2023-06-14T13:31:37.480Z,6.78
2023-06-14T13:34:42.075Z,3.40
2023-06-14T13:37:45.275Z,5.85
2023-06-14T13:40:48.666Z,3.95
2023-06-14T13:43:53.452Z,3.78
2023-06-14T13:46:56.485Z,4.75
2023-06-14T13:49:59.710Z,2.67
2023-06-14T13:53:02.717Z,4.93
2023-06-14T13:56:06.070Z,5.03
2023-06-14T13:59:10.597Z,3.90
2023-06-14T14:02:14.293Z,3.13
2023-06-14T14:05:17.955Z,3.30
2023-06-14T14:11:24.418Z,3.88
2023-06-14T14:14:29.406Z,3.88
2023-06-14T14:17:32.577Z,4.05
2023-06-14T14:20:35.832Z,4.28
2023-06-14T14:23:41.219Z,4.70
2023-06-14T14:26:45.677Z,5.07
2023-06-14T14:29:50.081Z,5.32
2023-06-14T14:32:53.919Z,4.28
2023-06-14T14:39:00.119Z,3.15
2023-06-14T14:42:03.408Z,7.25
2023-06-14T14:45:09.251Z,4.80
2023-06-14T14:48:12.718Z,4.32
2023-06-14T14:51:16.164Z,5.60
2023-06-14T14:54:19.225Z,6.50
2023-06-14T14:57:22.492Z,3.90
2023-06-14T15:00:27.426Z,3.05
2023-06-14T15:03:30.723Z,5.68
2023-06-14T15:06:39.008Z,3.90
2023-06-14T15:09:43.195Z,2.80
2023-06-14T15:12:47.076Z,5.70
2023-06-14T15:15:51.538Z,4.03
2023-06-14T15:18:55.428Z,3.28
2023-06-14T15:25:03.545Z,4.80
2023-06-14T15:28:07.972Z,4.13
2023-06-14T15:31:12.767Z,3.28
2023-06-14T15:34:16.341Z,3.70
2023-06-14T15:37:19.568Z,3.65
2023-06-14T15:40:43.134Z,2.38
2023-06-14T15:43:46.919Z,4.75
2023-06-14T15:46:52.290Z,5.60
2023-06-14T15:49:56.836Z,2.40
2023-06-14T15:53:01.123Z,9.18
2023-06-14T15:56:07.215Z,12.32
2023-06-14T15:59:12.963Z,3.65
2023-06-14T16:02:17.589Z,3.47
2023-06-14T16:05:22.215Z,4.75
2023-06-14T16:08:39.986Z,5.90
2023-06-14T16:11:47.215Z,5.22
2023-06-14T16:14:50.678Z,3.78
2023-06-14T16:17:55.647Z,4.03
2023-06-14T16:20:58.926Z,4.30
2023-06-14T16:24:02.452Z,2.77
2023-06-14T16:27:09.746Z,3.63
2023-06-14T16:30:15.166Z,5.53
2023-06-14T16:33:18.861Z,3.28
2023-06-14T16:36:23.111Z,3.47
2023-06-14T16:39:27.527Z,7.10
2023-06-14T16:42:34.038Z,3.35
2023-06-14T16:45:38.311Z,7.00
2023-06-14T16:48:42.088Z,5.40
2023-06-14T16:51:45.973Z,3.17
2023-06-14T16:54:50.368Z,3.85
2023-06-14T17:01:04.926Z,6.60
2023-06-14T17:04:08.316Z,7.60
2023-06-14T17:07:11.566Z,3.75
2023-06-14T17:10:15.239Z,3.77
2023-06-14T17:16:23.520Z,4.05
2023-06-14T17:19:27.384Z,3.03
2023-06-14T17:22:30.658Z,3.13
2023-06-14T17:25:33.972Z,3.63
2023-06-14T17:28:40.435Z,2.92
2023-06-14T17:31:43.812Z,6.43
2023-06-14T17:34:47.070Z,1.98
2023-06-14T17:37:50.315Z,3.57
2023-06-14T17:40:53.686Z,4.00
2023-06-14T17:43:58.448Z,4.68
2023-06-14T17:47:01.727Z,8.70
2023-06-14T17:50:06.973Z,6.10
2023-06-14T17:53:10.216Z,3.45
2023-06-14T17:56:13.272Z,3.53
2023-06-14T17:59:17.885Z,3.10
2023-06-14T18:02:20.907Z,2.95
2023-06-14T18:05:24.236Z,11.93
2023-06-14T18:08:27.416Z,3.45
2023-06-14T18:11:31.646Z,3.23
2023-06-14T18:14:36.419Z,2.10
2023-06-14T18:18:01.508Z,4.05
2023-06-14T18:21:04.717Z,5.85
2023-06-14T18:24:08.534Z,3.28
2023-06-14T18:27:12.852Z,2.15
2023-06-14T18:30:17.037Z,4.93
2023-06-14T18:35:07.496Z,3.97
2023-06-14T18:38:12.691Z,2.95
2023-06-14T18:41:15.922Z,2.88
2023-06-14T18:44:19.165Z,2.70
2023-06-14T18:47:22.557Z,7.03
2023-06-14T18:50:27.727Z,2.97
2023-06-14T18:53:31.073Z,11.60
2023-06-14T18:56:34.437Z,2.53
2023-06-14T18:59:37.575Z,11.10
2023-06-14T19:02:41.086Z,4.53
2023-06-14T19:05:45.660Z,4.75
2023-06-14T19:08:49.227Z,3.13
2023-06-14T19:11:53.565Z,7.18
2023-06-14T19:14:56.749Z,10.23
2023-06-14T19:18:01.029Z,3.70
2023-06-14T19:21:06.226Z,5.68
2023-06-14T19:24:09.829Z,2.22
2023-06-14T19:27:13.938Z,5.33
2023-06-14T19:30:17.856Z,3.30
2023-06-14T19:33:21.176Z,3.78
2023-06-14T19:36:44.461Z,4.65
2023-06-14T19:39:49.310Z,7.10
2023-06-14T19:42:52.415Z,9.25
2023-06-14T19:45:55.760Z,5.32
2023-06-14T19:48:58.903Z,4.15
2023-06-14T19:52:03.408Z,6.07
2023-06-14T19:55:07.422Z,3.85
2023-06-14T20:01:15.039Z,3.58
2023-06-14T20:04:19.143Z,3.55
2023-06-14T20:07:25.395Z,4.25
2023-06-14T20:10:28.503Z,5.65
2023-06-14T20:13:31.633Z,5.57
2023-06-14T20:16:35.086Z,4.43
2023-06-14T20:19:39.461Z,4.25
2023-06-14T20:22:43.924Z,3.75
2023-06-14T20:25:51.464Z,4.97
2023-06-14T20:28:55.843Z,5.65
2023-06-14T20:31:58.977Z,4.18
2023-06-14T20:35:02.240Z,3.30
2023-06-14T20:38:06.955Z,26.60
2023-06-14T20:41:10.241Z,30.55
2023-06-14T20:44:13.566Z,13.93
2023-06-14T20:47:16.763Z,16.53
2023-06-14T20:50:20.475Z,38.13
2023-06-14T20:53:25.091Z,34.35
2023-06-14T20:56:28.228Z,13.35
2023-06-14T20:59:31.361Z,5.80
2023-06-14T21:02:34.686Z,5.00
2023-06-14T21:05:39.058Z,4.47
2023-06-14T21:08:44.057Z,6.53
2023-06-14T21:11:48.439Z,20.55
2023-06-14T21:14:51.595Z,36.67
2023-06-14T21:17:54.861Z,33.07
2023-06-14T21:20:58.067Z,18.37
2023-06-14T21:24:02.477Z,13.00
2023-06-14T21:27:06.690Z,11.35
2023-06-14T21:30:12.669Z,7.65
2023-06-14T21:33:16.920Z,4.18
2023-06-14T21:36:20.011Z,3.63
2023-06-14T21:39:24.580Z,15.53
2023-06-14T21:42:27.669Z,9.32
2023-06-14T21:45:30.916Z,7.22
2023-06-14T21:48:34.075Z,4.40
2023-06-14T21:51:37.511Z,3.63
2023-06-14T21:54:43.944Z,3.42
2023-06-14T21:57:47.511Z,5.65
2023-06-14T22:00:50.733Z,4.03
2023-06-14T22:03:54.270Z,7.33
2023-06-14T22:06:57.979Z,5.05
2023-06-14T22:10:02.511Z,5.25
2023-06-14T22:13:05.712Z,4.10
2023-06-14T22:16:11.413Z,5.63
2023-06-14T22:19:14.938Z,5.65
2023-06-14T22:22:26.165Z,5.22
2023-06-14T22:25:32.774Z,4.93
2023-06-14T22:28:42.813Z,10.43
2023-06-14T22:32:10.504Z,3.30
2023-06-14T22:35:13.921Z,6.55
2023-06-14T22:38:20.505Z,4.07
2023-06-14T22:41:27.267Z,2.92
2023-06-14T22:44:31.463Z,6.55
2023-06-14T22:50:39.368Z,3.08
2023-06-14T22:53:42.726Z,3.40
2023-06-14T22:56:46.203Z,5.77
2023-06-14T22:59:49.249Z,3.92
2023-06-14T23:02:54.091Z,7.78
2023-06-14T23:05:59.799Z,2.78
2023-06-14T23:09:05.557Z,4.43
2023-06-14T23:12:10.991Z,2.92
2023-06-14T23:15:14.279Z,3.88
2023-06-14T23:18:19.176Z,2.43
2023-06-14T23:21:22.643Z,5.13
2023-06-14T23:24:26.000Z,7.80
2023-06-14T23:27:31.086Z,3.17
2023-06-14T23:30:37.231Z,6.57
2023-06-14T23:33:42.779Z,3.55
2023-06-14T23:36:47.370Z,4.63
2023-06-14T23:39:51.298Z,2.30
2023-06-14T23:42:54.675Z,4.22
2023-06-14T23:45:58.736Z,3.33
2023-06-14T23:52:09.031Z,4.60
2023-06-14T23:55:17.928Z,3.50
2023-06-14T23:58:21.698Z,3.38
